Sanaa, Yemen
Current Conditions -  °F | °C
As of 12:00 PM on Saturday 20 Dec 2014 (Local Time) from OYSN Reporting Station
Clear Clear  
Wind Chill: 64°   Ceiling: Unl
Heat Index: 64°   Visibility: 6mi
Dew Point: 28°   Wind: 6mph
Humidity: 26%   Direction: 20°NNE
Pressure: 30.36"   Gusts: NA
Location:  15.35°N, 44.21°E
Report Text: OYSN 200900Z 02005KT CAVOK 18/M02 Q1028 NOSIG
Loading
Personal Weather Stations






























Interactive Weather Map New forecast layout! Learn more

10-Day Weather Forecast

Advertisements
Track Severe Weather on mobile